Match Point — CRA4590 — position and weather

sailwx.info

Track history (hours):
 
Tides and Currents Weather Stations Pressure Air Temp Water Temp Dewpoint Dewpoint Depression Visibility Wind Speed Wind Dir Waves Ship Positions

Match Point

Last reported at 2017-Aug-16 09:10 UTC. Time now 2017-Aug-17 21:29 UTC.
Position N 37°07' W 008°40'.

Length 15 m.

Type: Sailing vessel. MMSI: 263913640.

Date/timePositionNaut miles runAvg speedWind from/ knotsBaromVisibWave heightAir tempDewpointWater temp
2017-Aug-16 09:10N 37°07' W 008°40'  
2017-Aug-09 18:09N 37°06' W 008°40'2 4.9
2017-Aug-09 17:50N 37°07' W 008°39'2 6.0
2017-Aug-09 17:25N 37°07' W 008°35'1 2.0
2017-Aug-09 16:48N 37°07' W 008°34'0 0.0
2017-Aug-09 16:30N 37°07' W 008°34'0 0.0
2017-Aug-09 16:00N 37°07' W 008°34'0 0.0
2017-Aug-09 14:46N 37°07' W 008°34'4 2.0
2017-Aug-09 12:33N 37°04' W 008°30'1 6.9
2017-Aug-09 12:26N 37°05' W 008°29'2 3.4
2017-Aug-09 11:52N 37°05' W 008°31'2 5.0
2017-Aug-09 11:27N 37°06' W 008°34'3 5.2
2017-Aug-09 10:57N 37°07' W 008°37'3 5.7
2017-Aug-09 10:28N 37°06' W 008°40'1 0.0
2017-Aug-08 18:14N 37°06' W 008°40'1 3.8
2017-Aug-08 18:00N 37°06' W 008°39'3 6.8
2017-Aug-08 17:30N 37°07' W 008°35'1 2.0
2017-Aug-08 17:00N 37°07' W 008°34'0 0.0
2017-Aug-08 16:28N 37°07' W 008°34'0 0.0
2017-Aug-08 16:00N 37°07' W 008°34'0 0.0
2017-Aug-08 15:28N 37°07' W 008°34'0 0.0
2017-Aug-08 14:58N 37°07' W 008°34'0 0.0
2017-Aug-08 14:28N 37°07' W 008°34'0 0.0
2017-Aug-08 13:58N 37°07' W 008°34'0 0.0
2017-Aug-08 13:28N 37°07' W 008°34'0 0.0
2017-Aug-08 12:55N 37°07' W 008°34'0 0.1
2017-Aug-08 12:25N 37°07' W 008°34'0 0.1
2017-Aug-08 12:00N 37°07' W 008°34'3 7.0
2017-Aug-08 11:30N 37°06' W 008°38'2 0.1
2017-Aug-06 18:10N 37°07' W 008°41'1 4.2
2017-Aug-06 17:59N 37°06' W 008°40'7 1.2
2017-Aug-06 12:25N 37°04' W 008°48'3 7.6
2017-Aug-06 11:59N 37°04' W 008°44'3 5.9
2017-Aug-06 11:29N 37°04' W 008°40'2 4.2
2017-Aug-06 11:00N 37°06' W 008°40'  
Track history (hours):
 
Tides and Currents Weather Stations Pressure Air Temp Water Temp Dewpoint Dewpoint Depression Visibility Wind Speed Wind Dir Waves Ship Positions

Match Point

Last reported at 2017-Aug-16 09:10 UTC. Time now 2017-Aug-17 21:29 UTC.
Position N 37°07' W 008°40'.

Length 15 m.

Type: Sailing vessel. MMSI: 263913640.

Date/timePositionNaut miles runAvg speedWind from/ knotsBaromVisibWave heightAir tempDewpointWater temp
2017-Aug-16 09:10N 37°07' W 008°40'  
2017-Aug-09 18:09N 37°06' W 008°40'2 4.9
2017-Aug-09 17:50N 37°07' W 008°39'2 6.0
2017-Aug-09 17:25N 37°07' W 008°35'1 2.0
2017-Aug-09 16:48N 37°07' W 008°34'0 0.0
2017-Aug-09 16:30N 37°07' W 008°34'0 0.0
2017-Aug-09 16:00N 37°07' W 008°34'0 0.0
2017-Aug-09 14:46N 37°07' W 008°34'4 2.0
2017-Aug-09 12:33N 37°04' W 008°30'1 6.9
2017-Aug-09 12:26N 37°05' W 008°29'2 3.4
2017-Aug-09 11:52N 37°05' W 008°31'2 5.0
2017-Aug-09 11:27N 37°06' W 008°34'3 5.2
2017-Aug-09 10:57N 37°07' W 008°37'3 5.7
2017-Aug-09 10:28N 37°06' W 008°40'1 0.0
2017-Aug-08 18:14N 37°06' W 008°40'1 3.8
2017-Aug-08 18:00N 37°06' W 008°39'3 6.8
2017-Aug-08 17:30N 37°07' W 008°35'1 2.0
2017-Aug-08 17:00N 37°07' W 008°34'0 0.0
2017-Aug-08 16:28N 37°07' W 008°34'0 0.0
2017-Aug-08 16:00N 37°07' W 008°34'0 0.0
2017-Aug-08 15:28N 37°07' W 008°34'0 0.0
2017-Aug-08 14:58N 37°07' W 008°34'0 0.0
2017-Aug-08 14:28N 37°07' W 008°34'0 0.0
2017-Aug-08 13:58N 37°07' W 008°34'0 0.0
2017-Aug-08 13:28N 37°07' W 008°34'0 0.0
2017-Aug-08 12:55N 37°07' W 008°34'0 0.1
2017-Aug-08 12:25N 37°07' W 008°34'0 0.1
2017-Aug-08 12:00N 37°07' W 008°34'3 7.0
2017-Aug-08 11:30N 37°06' W 008°38'2 0.1
2017-Aug-06 18:10N 37°07' W 008°41'1 4.2
2017-Aug-06 17:59N 37°06' W 008°40'7 1.2
2017-Aug-06 12:25N 37°04' W 008°48'3 7.6
2017-Aug-06 11:59N 37°04' W 008°44'3 5.9
2017-Aug-06 11:29N 37°04' W 008°40'2 4.2
2017-Aug-06 11:00N 37°06' W 008°40'  

Dump ship's entire track history